Time;durP1;ratioP1;P1;durP2;ratioP2;P2;SDS_P1;SDS_P2;PMS_P1;PMS_P2;Temp;Humidity;BMP_temperature;BMP_pressure;BME280_temperature;BME280_humidity;BME280_pressure;Samples;Min_cycle;Max_cycle;Signal;HPM_P1;HPM_P2
2021/10/26 00:00:46;;;;;;;;;;;5.40;99.90;;;;;;5091669;28;19943;-76
2021/10/26 00:03:12;;;;;;;;;;;5.60;99.90;;;;;;5094244;28;20266;-77
2021/10/26 00:05:37;;;;;;;;;;;5.70;99.90;;;;;;5075971;28;19958;-77
2021/10/26 00:08:03;;;;;;;;;;;5.60;99.90;;;;;;5094137;28;19908;-77
2021/10/26 00:10:28;;;;;;;;;;;5.90;99.90;;;;;;5093267;28;20007;-76
2021/10/26 00:12:54;;;;;;;;;;;6.20;99.90;;;;;;5094009;28;19915;-77
2021/10/26 00:15:20;;;;;;;;;;;6.20;99.90;;;;;;5075719;28;19940;-77
2021/10/26 00:17:46;;;;;;;;;;;6.30;99.90;;;;;;5093826;28;20316;-77
2021/10/26 00:20:11;;;;;;;;;;;6.50;99.90;;;;;;5093772;28;20374;-77
2021/10/26 00:22:37;;;;;;;;;;;6.60;99.90;;;;;;5093717;28;19966;-77
2021/10/26 00:25:03;;;;;;;;;;;6.70;99.90;;;;;;5094227;28;20003;-76
2021/10/26 00:27:28;;;;;;;;;;;6.80;99.90;;;;;;5088945;28;19914;-76
2021/10/26 00:29:54;;;;;;;;;;;7.00;99.90;;;;;;5083020;28;19908;-77
2021/10/26 00:32:20;;;;;;;;;;;6.90;99.90;;;;;;5093647;28;19915;-77
2021/10/26 00:34:45;;;;;;;;;;;6.90;99.90;;;;;;5093590;28;19991;-77
2021/10/26 00:37:11;;;;;;;;;;;6.90;99.90;;;;;;5093547;28;20001;-76
2021/10/26 00:39:37;;;;;;;;;;;6.90;99.90;;;;;;5093006;28;20053;-77
2021/10/26 00:42:04;;;;;;;;;;;7.00;99.90;;;;;;5093409;28;20346;-77
2021/10/26 00:44:33;;;;;;;;;;;7.00;99.90;;;;;;5075074;28;19913;-77
2021/10/26 00:46:59;;;;;;;;;;;7.00;99.90;;;;;;5093419;28;20325;-77
2021/10/26 00:49:24;;;;;;;;;;;6.90;99.90;;;;;;5093222;28;20009;-77
2021/10/26 00:51:51;;;;;;;;;;;6.80;99.90;;;;;;5092961;28;19908;-76
2021/10/26 00:54:17;;;;;;;;;;;6.80;99.90;;;;;;5092985;28;19912;-77
2021/10/26 00:56:43;;;;;;;;;;;6.80;99.90;;;;;;5089222;28;20004;-77
2021/10/26 00:59:09;;;;;;;;;;;6.80;99.90;;;;;;5088286;28;19962;-76
2021/10/26 01:01:35;;;;;;;;;;;6.80;99.90;;;;;;5092689;28;19908;-77
2021/10/26 01:04:01;;;;;;;;;;;6.70;99.90;;;;;;5074751;28;20283;-77
2021/10/26 01:06:27;;;;;;;;;;;6.60;99.90;;;;;;5074741;28;19934;-77
2021/10/26 01:08:53;;;;;;;;;;;6.60;99.90;;;;;;5092723;28;20009;-77
2021/10/26 01:11:18;;;;;;;;;;;6.60;99.90;;;;;;5092426;28;19916;-77
2021/10/26 01:13:44;;;;;;;;;;;6.60;99.90;;;;;;5092735;28;19909;-76
2021/10/26 01:16:10;;;;;;;;;;;6.60;99.90;;;;;;5092762;28;19916;-76
2021/10/26 01:18:36;;;;;;;;;;;6.70;99.90;;;;;;5092576;28;20424;-77
2021/10/26 01:21:02;;;;;;;;;;;6.70;99.90;;;;;;5092333;28;19973;-77
2021/10/26 01:23:28;;;;;;;;;;;6.80;99.90;;;;;;5092509;28;19912;-77
2021/10/26 01:25:54;;;;;;;;;;;6.80;99.90;;;;;;5092591;28;19908;-76
2021/10/26 01:28:19;;;;;;;;;;;6.80;99.90;;;;;;5085578;28;19909;-77
2021/10/26 01:30:45;;;;;;;;;;;6.80;99.90;;;;;;5092104;28;19908;-77
2021/10/26 01:33:10;;;;;;;;;;;6.90;99.90;;;;;;5092505;28;19909;-77
2021/10/26 01:35:36;;;;;;;;;;;6.80;99.90;;;;;;5092308;28;20329;-76
2021/10/26 01:38:03;;;;;;;;;;;6.90;99.90;;;;;;5092100;28;20282;-77
2021/10/26 01:40:29;;;;;;;;;;;6.80;99.90;;;;;;5091969;28;20011;-77
2021/10/26 01:42:54;;;;;;;;;;;6.80;99.90;;;;;;5092004;28;19948;-77
2021/10/26 01:45:20;;;;;;;;;;;7.10;99.90;;;;;;5092197;28;19912;-77
2021/10/26 01:47:46;;;;;;;;;;;7.30;99.90;;;;;;5092088;28;20385;-77
2021/10/26 01:50:13;;;;;;;;;;;7.80;99.90;;;;;;5073440;28;20271;-77
2021/10/26 01:52:39;;;;;;;;;;;8.00;99.90;;;;;;5073738;28;19934;-77
2021/10/26 01:55:05;;;;;;;;;;;8.30;99.90;;;;;;5092124;28;19912;-77
2021/10/26 01:57:30;;;;;;;;;;;8.30;99.90;;;;;;5089080;28;19908;-77
2021/10/26 01:59:57;;;;;;;;;;;8.30;99.90;;;;;;5085986;28;19946;-77
2021/10/26 02:02:23;;;;;;;;;;;8.20;99.90;;;;;;5092002;28;19969;-77
2021/10/26 02:04:49;;;;;;;;;;;8.10;99.90;;;;;;5091791;28;20015;-76
2021/10/26 02:07:14;;;;;;;;;;;8.10;99.90;;;;;;5091576;28;20184;-77
2021/10/26 02:09:40;;;;;;;;;;;8.10;99.90;;;;;;5091363;28;19916;-76
2021/10/26 02:12:05;;;;;;;;;;;8.10;99.90;;;;;;5091805;28;20005;-76
2021/10/26 02:14:32;;;;;;;;;;;8.10;99.90;;;;;;5091627;28;20341;-76
2021/10/26 02:16:57;;;;;;;;;;;8.00;99.90;;;;;;5091534;28;19908;-76
2021/10/26 02:19:23;;;;;;;;;;;8.00;99.90;;;;;;5091576;28;19931;-76
2021/10/26 02:21:48;;;;;;;;;;;7.90;99.90;;;;;;5091795;28;19912;-77
2021/10/26 02:24:14;;;;;;;;;;;7.90;99.90;;;;;;5091401;28;20269;-76
2021/10/26 02:26:39;;;;;;;;;;;7.70;99.90;;;;;;5088183;28;20328;-76
2021/10/26 02:29:05;;;;;;;;;;;7.50;99.90;;;;;;5089771;28;19916;-77
2021/10/26 02:31:31;;;;;;;;;;;7.50;99.90;;;;;;5091457;28;19953;-76
2021/10/26 02:33:56;;;;;;;;;;;7.40;99.90;;;;;;5091480;28;19995;-77
2021/10/26 02:36:22;;;;;;;;;;;7.40;99.90;;;;;;5073016;28;19908;-76
2021/10/26 02:38:47;;;;;;;;;;;7.30;99.90;;;;;;5073274;28;19961;-77
2021/10/26 02:41:12;;;;;;;;;;;7.30;99.90;;;;;;5090852;28;20381;-76
2021/10/26 02:43:38;;;;;;;;;;;7.30;99.90;;;;;;5091318;28;19918;-77
2021/10/26 02:46:04;;;;;;;;;;;7.30;99.90;;;;;;5094906;28;19912;-76
2021/10/26 02:48:29;;;;;;;;;;;7.30;99.90;;;;;;5098147;28;19908;-76
2021/10/26 02:50:55;;;;;;;;;;;7.20;99.90;;;;;;5097298;28;19908;-76
2021/10/26 02:53:20;;;;;;;;;;;7.20;99.90;;;;;;5093107;28;19915;-76
2021/10/26 02:55:46;;;;;;;;;;;7.10;99.90;;;;;;5091006;28;19912;-77
2021/10/26 02:58:12;;;;;;;;;;;7.00;99.90;;;;;;5072518;28;19912;-76
2021/10/26 03:00:37;;;;;;;;;;;7.00;99.90;;;;;;5087305;28;20396;-77
2021/10/26 03:03:03;;;;;;;;;;;6.90;99.90;;;;;;5090953;28;19912;-76
2021/10/26 03:05:29;;;;;;;;;;;6.80;99.90;;;;;;5090933;28;19961;-76
2021/10/26 03:07:54;;;;;;;;;;;6.60;99.90;;;;;;5090798;28;20344;-76
2021/10/26 03:10:20;;;;;;;;;;;6.60;99.90;;;;;;5090386;28;19959;-77
2021/10/26 03:12:45;;;;;;;;;;;6.50;99.90;;;;;;5091029;28;20321;-76
2021/10/26 03:15:11;;;;;;;;;;;6.50;99.90;;;;;;5090890;28;20273;-76
2021/10/26 03:17:37;;;;;;;;;;;6.50;99.90;;;;;;5090881;28;19915;-76
2021/10/26 03:20:03;;;;;;;;;;;6.50;99.90;;;;;;5073514;28;19958;-77
2021/10/26 03:22:29;;;;;;;;;;;6.40;99.90;;;;;;5094908;28;20064;-76
2021/10/26 03:24:55;;;;;;;;;;;6.40;99.90;;;;;;5094902;28;19912;-76
2021/10/26 03:27:21;;;;;;;;;;;6.40;99.90;;;;;;5091438;28;19908;-76
2021/10/26 03:29:47;;;;;;;;;;;6.40;99.90;;;;;;5094115;28;19912;-76
2021/10/26 03:32:13;;;;;;;;;;;6.20;99.90;;;;;;5088157;28;20385;-76
2021/10/26 03:34:38;;;;;;;;;;;6.10;99.90;;;;;;5093083;28;20413;-76
2021/10/26 03:37:04;;;;;;;;;;;6.10;99.90;;;;;;5094532;28;19916;-76
2021/10/26 03:39:30;;;;;;;;;;;5.90;99.90;;;;;;5094406;28;19963;-76
2021/10/26 03:41:56;;;;;;;;;;;6.20;99.90;;;;;;5094087;28;20304;-76
2021/10/26 03:44:22;;;;;;;;;;;6.40;99.90;;;;;;5094357;28;20007;-77
2021/10/26 03:46:47;;;;;;;;;;;6.40;99.90;;;;;;5094299;28;20343;-77
2021/10/26 03:49:13;;;;;;;;;;;6.40;99.90;;;;;;5094147;28;19930;-77
2021/10/26 03:51:39;;;;;;;;;;;6.30;99.90;;;;;;5094067;28;19915;-76
2021/10/26 03:54:04;;;;;;;;;;;6.20;99.90;;;;;;5094177;28;19908;-76
2021/10/26 03:56:30;;;;;;;;;;;6.10;99.90;;;;;;5093913;28;20347;-76
2021/10/26 03:58:57;;;;;;;;;;;5.90;99.90;;;;;;5092754;28;19912;-76
2021/10/26 04:01:23;;;;;;;;;;;5.80;99.90;;;;;;5093655;28;19908;-76
2021/10/26 04:03:49;;;;;;;;;;;5.90;99.90;;;;;;5093895;28;19992;-76
2021/10/26 04:06:17;;;;;;;;;;;5.90;99.90;;;;;;5093896;28;19953;-77
2021/10/26 04:11:18;;;;;;;;;;;5.60;99.90;;;;;;5093547;28;19916;-76
2021/10/26 04:13:44;;;;;;;;;;;5.50;99.90;;;;;;5093831;28;19957;-76
2021/10/26 04:16:10;;;;;;;;;;;5.40;99.90;;;;;;5093646;28;20378;-76
2021/10/26 04:18:36;;;;;;;;;;;5.60;99.90;;;;;;5093792;28;19912;-77
2021/10/26 04:21:02;;;;;;;;;;;5.60;99.90;;;;;;5093161;28;19908;-76
2021/10/26 04:23:28;;;;;;;;;;;5.60;99.90;;;;;;5093663;28;19957;-77
2021/10/26 04:25:54;;;;;;;;;;;5.40;99.90;;;;;;5075476;28;19916;-77
2021/10/26 04:28:19;;;;;;;;;;;5.40;99.90;;;;;;5081727;28;19915;-77
2021/10/26 04:30:45;;;;;;;;;;;5.50;99.90;;;;;;5093010;28;19908;-76
2021/10/26 04:33:11;;;;;;;;;;;5.30;99.90;;;;;;5075221;28;20002;-77
2021/10/26 04:35:37;;;;;;;;;;;5.30;99.90;;;;;;5093443;28;20310;-76
2021/10/26 04:38:03;;;;;;;;;;;5.30;99.90;;;;;;5075378;28;19919;-76
2021/10/26 04:40:31;;;;;;;;;;;5.30;99.90;;;;;;5092744;28;20374;-76
2021/10/26 04:42:56;;;;;;;;;;;5.20;99.90;;;;;;5093332;28;20371;-76
2021/10/26 04:45:22;;;;;;;;;;;5.20;99.90;;;;;;5093125;28;19908;-76
2021/10/26 04:47:47;;;;;;;;;;;5.40;99.90;;;;;;5093285;28;19909;-77
2021/10/26 04:50:13;;;;;;;;;;;5.50;99.90;;;;;;5092651;28;19915;-76
2021/10/26 04:52:39;;;;;;;;;;;5.50;99.90;;;;;;5092989;28;19992;-76
2021/10/26 04:55:05;;;;;;;;;;;5.40;99.90;;;;;;5092819;28;19908;-76
2021/10/26 04:57:31;;;;;;;;;;;5.40;99.90;;;;;;5072049;28;20353;-77
2021/10/26 04:59:56;;;;;;;;;;;5.40;99.90;;;;;;5068290;28;19908;-77
2021/10/26 05:02:22;;;;;;;;;;;5.50;99.90;;;;;;5093131;28;19965;-77
2021/10/26 05:04:48;;;;;;;;;;;5.50;99.90;;;;;;5092739;28;19913;-76
2021/10/26 05:07:15;;;;;;;;;;;5.40;99.90;;;;;;5092956;28;20346;-76
2021/10/26 05:09:40;;;;;;;;;;;5.40;99.90;;;;;;5073791;28;20286;-77
2021/10/26 05:12:06;;;;;;;;;;;5.40;99.90;;;;;;5093052;28;19912;-76
2021/10/26 05:14:32;;;;;;;;;;;5.40;99.90;;;;;;5074420;28;19915;-76
2021/10/26 05:16:57;;;;;;;;;;;5.20;99.90;;;;;;5086175;28;19969;-76
2021/10/26 05:19:25;;;;;;;;;;;5.10;99.90;;;;;;5092411;28;20397;-76
2021/10/26 05:21:50;;;;;;;;;;;5.10;99.90;;;;;;5092380;28;19909;-76
2021/10/26 05:24:16;;;;;;;;;;;5.10;99.90;;;;;;5092394;28;19916;-76
2021/10/26 05:26:42;;;;;;;;;;;5.00;99.90;;;;;;5092298;28;19908;-77
2021/10/26 05:29:11;;;;;;;;;;;5.40;99.90;;;;;;5092048;28;20194;-77
2021/10/26 05:31:38;;;;;;;;;;;5.50;99.90;;;;;;5073752;28;19908;-76
2021/10/26 05:34:06;;;;;;;;;;;5.50;99.90;;;;;;5092136;28;20425;-76
2021/10/26 05:36:32;;;;;;;;;;;5.50;99.90;;;;;;5092286;28;20062;-76
2021/10/26 05:38:58;;;;;;;;;;;5.50;99.90;;;;;;5091636;28;20374;-77
2021/10/26 05:41:24;;;;;;;;;;;5.60;99.90;;;;;;5091662;28;19912;-76
2021/10/26 05:43:50;;;;;;;;;;;5.50;99.90;;;;;;5091359;28;19992;-77
2021/10/26 05:46:15;;;;;;;;;;;5.50;99.90;;;;;;5073840;28;19912;-77
2021/10/26 05:48:41;;;;;;;;;;;5.60;99.90;;;;;;5091963;28;19908;-76
2021/10/26 05:51:08;;;;;;;;;;;5.70;99.90;;;;;;5091649;28;19912;-76
2021/10/26 05:53:33;;;;;;;;;;;5.70;99.90;;;;;;5091960;28;19908;-76
2021/10/26 05:55:59;;;;;;;;;;;5.80;99.90;;;;;;5091933;28;19953;-76
2021/10/26 05:58:25;;;;;;;;;;;5.80;99.90;;;;;;5082278;28;20370;-77
2021/10/26 06:00:50;;;;;;;;;;;5.70;99.90;;;;;;5088315;28;20390;-77
2021/10/26 06:03:16;;;;;;;;;;;5.70;99.90;;;;;;5084405;28;20277;-77
2021/10/26 06:05:41;;;;;;;;;;;5.70;99.90;;;;;;5092034;28;19965;-76
2021/10/26 06:08:07;;;;;;;;;;;5.80;99.90;;;;;;5091484;28;19947;-76
2021/10/26 06:10:36;;;;;;;;;;;5.80;99.90;;;;;;5082426;28;19964;-76
2021/10/26 06:13:11;;;;;;;;;;;5.80;99.90;;;;;;5066540;28;19915;-76
2021/10/26 06:15:37;;;;;;;;;;;5.90;99.90;;;;;;5091745;28;20053;-77
2021/10/26 06:18:02;;;;;;;;;;;5.90;99.90;;;;;;5091650;28;19995;-77
2021/10/26 06:20:28;;;;;;;;;;;6.00;99.90;;;;;;5091499;28;19915;-76
2021/10/26 06:22:53;;;;;;;;;;;5.90;99.90;;;;;;5091490;28;19974;-76
2021/10/26 06:25:19;;;;;;;;;;;6.00;99.90;;;;;;5091666;28;20329;-77
2021/10/26 06:27:44;;;;;;;;;;;6.10;99.90;;;;;;5087809;28;19920;-77
2021/10/26 06:30:11;;;;;;;;;;;6.10;99.90;;;;;;5084306;28;19919;-77
2021/10/26 06:32:40;;;;;;;;;;;6.10;99.90;;;;;;5088450;28;19939;-77
2021/10/26 06:35:06;;;;;;;;;;;6.20;99.90;;;;;;5072931;28;19908;-76
2021/10/26 06:37:34;;;;;;;;;;;6.20;99.90;;;;;;5091153;28;19918;-76
2021/10/26 06:40:00;;;;;;;;;;;6.20;99.90;;;;;;5091380;28;19920;-77
2021/10/26 06:42:25;;;;;;;;;;;6.30;99.90;;;;;;5091317;28;19927;-77
2021/10/26 06:44:51;;;;;;;;;;;6.30;99.90;;;;;;5092463;28;19957;-77
2021/10/26 06:47:18;;;;;;;;;;;6.20;99.90;;;;;;5092307;28;20370;-76
2021/10/26 06:49:45;;;;;;;;;;;6.20;99.90;;;;;;5073627;28;20345;-75
2021/10/26 06:52:11;;;;;;;;;;;6.00;99.90;;;;;;5091681;28;20340;-76
2021/10/26 06:54:37;;;;;;;;;;;6.00;99.90;;;;;;5091726;28;19937;-75
2021/10/26 06:57:03;;;;;;;;;;;6.10;99.90;;;;;;5072189;28;19909;-75
2021/10/26 06:59:28;;;;;;;;;;;6.20;99.90;;;;;;5090220;28;19909;-75
2021/10/26 07:01:53;;;;;;;;;;;6.40;99.90;;;;;;5094692;28;20314;-76
2021/10/26 07:04:19;;;;;;;;;;;6.50;99.90;;;;;;5095403;28;19912;-76
2021/10/26 07:06:45;;;;;;;;;;;6.60;99.90;;;;;;5095668;28;20348;-75
2021/10/26 07:09:10;;;;;;;;;;;6.70;99.90;;;;;;5095169;28;20344;-75
2021/10/26 07:11:36;;;;;;;;;;;6.90;99.90;;;;;;5095083;28;19981;-76
2021/10/26 07:14:02;;;;;;;;;;;7.10;99.90;;;;;;5095681;28;19908;-76
2021/10/26 07:16:28;;;;;;;;;;;7.20;99.90;;;;;;5088869;28;19909;-76
2021/10/26 07:18:53;;;;;;;;;;;7.20;99.90;;;;;;5095503;28;19961;-76
2021/10/26 07:21:19;;;;;;;;;;;7.40;99.90;;;;;;5099145;28;19915;-76
2021/10/26 07:23:44;;;;;;;;;;;7.40;99.90;;;;;;5116699;28;19972;-74
2021/10/26 07:26:10;;;;;;;;;;;7.30;99.90;;;;;;5118683;28;19948;-74
2021/10/26 07:28:36;;;;;;;;;;;7.30;99.90;;;;;;5093959;28;20085;-74
2021/10/26 07:31:01;;;;;;;;;;;7.10;99.90;;;;;;5118098;28;19939;-75
2021/10/26 07:33:31;;;;;;;;;;;7.10;99.90;;;;;;5103289;28;19916;-74
2021/10/26 07:35:57;;;;;;;;;;;7.30;99.90;;;;;;5121223;28;19904;-74
2021/10/26 07:38:29;;;;;;;;;;;7.30;99.90;;;;;;5117543;28;19912;-75
2021/10/26 07:40:58;;;;;;;;;;;7.30;99.90;;;;;;5118087;28;19975;-75
2021/10/26 07:43:24;;;;;;;;;;;7.50;99.90;;;;;;5120355;28;19908;-74
2021/10/26 07:45:50;;;;;;;;;;;7.50;99.90;;;;;;5120870;28;19923;-75
2021/10/26 07:48:15;;;;;;;;;;;7.60;99.90;;;;;;5120767;28;19907;-75
2021/10/26 07:50:42;;;;;;;;;;;7.60;99.90;;;;;;5120345;28;19904;-75
2021/10/26 07:53:08;;;;;;;;;;;7.50;99.90;;;;;;5120374;28;19916;-74
2021/10/26 07:55:34;;;;;;;;;;;7.50;99.90;;;;;;5120757;28;19911;-74
2021/10/26 07:57:59;;;;;;;;;;;7.60;99.90;;;;;;5117486;28;19901;-74
2021/10/26 08:00:25;;;;;;;;;;;7.70;99.90;;;;;;5098952;28;19913;-75
2021/10/26 08:02:50;;;;;;;;;;;8.00;99.90;;;;;;5117939;28;19928;-74
2021/10/26 08:05:17;;;;;;;;;;;8.30;99.90;;;;;;5114102;28;19924;-75
2021/10/26 08:07:42;;;;;;;;;;;8.60;99.90;;;;;;5120350;28;19923;-74
2021/10/26 08:10:08;;;;;;;;;;;8.90;99.90;;;;;;5102188;28;19908;-74
2021/10/26 08:12:33;;;;;;;;;;;9.10;99.90;;;;;;5102682;28;19938;-76
2021/10/26 08:15:00;;;;;;;;;;;9.40;99.90;;;;;;5102661;28;19896;-76
2021/10/26 08:17:25;;;;;;;;;;;9.70;99.90;;;;;;5120070;28;19924;-75
2021/10/26 08:19:51;;;;;;;;;;;10.00;99.90;;;;;;5119597;28;19909;-75
2021/10/26 08:22:17;;;;;;;;;;;10.40;99.90;;;;;;5102533;28;19923;-76
2021/10/26 08:24:47;;;;;;;;;;;11.60;99.90;;;;;;5119940;28;19908;-75
2021/10/26 08:27:17;;;;;;;;;;;13.80;99.90;;;;;;5097408;28;19908;-74
2021/10/26 08:30:08;;;;;;;;;;;15.50;99.90;;;;;;5115328;28;19900;-74
2021/10/26 08:37:47;;;;;;;;;;;15.90;99.90;;;;;;5095246;28;20058;-77
2021/10/26 08:40:13;;;;;;;;;;;17.10;99.90;;;;;;5096049;28;19912;-77
2021/10/26 08:42:39;;;;;;;;;;;17.20;99.90;;;;;;5077842;28;19957;-77
2021/10/26 08:45:05;;;;;;;;;;;16.20;99.90;;;;;;5095260;28;19912;-77
2021/10/26 08:47:31;;;;;;;;;;;15.20;99.90;;;;;;5095329;28;19930;-77
2021/10/26 08:49:56;;;;;;;;;;;14.40;99.90;;;;;;5095624;28;20363;-76
2021/10/26 08:52:24;;;;;;;;;;;14.10;99.90;;;;;;5096378;28;19995;-77
2021/10/26 08:54:54;;;;;;;;;;;13.90;99.90;;;;;;5077650;28;19908;-76
2021/10/26 08:57:20;;;;;;;;;;;13.70;99.90;;;;;;5093012;28;19908;-76
2021/10/26 08:59:48;;;;;;;;;;;13.00;99.90;;;;;;5090545;28;20318;-76
2021/10/26 09:02:13;;;;;;;;;;;13.00;99.90;;;;;;5077705;28;20440;-76
2021/10/26 09:04:39;;;;;;;;;;;13.50;99.90;;;;;;5077185;28;19912;-76
2021/10/26 09:07:14;;;;;;;;;;;14.50;99.90;;;;;;5095415;28;19909;-76
2021/10/26 09:09:39;;;;;;;;;;;14.90;99.90;;;;;;5094678;28;19916;-76
2021/10/26 09:17:51;;;;;;;;;;;14.80;99.90;;;;;;5053796;28;19915;-77
2021/10/26 09:20:21;;;;;;;;;;;14.20;99.90;;;;;;5077374;28;19912;-77
2021/10/26 09:22:48;;;;;;;;;;;14.10;99.90;;;;;;5096247;28;19908;-76
2021/10/26 09:25:14;;;;;;;;;;;14.00;99.90;;;;;;5095761;28;19912;-77
2021/10/26 09:27:40;;;;;;;;;;;14.10;99.90;;;;;;5092127;28;19930;-75
2021/10/26 09:30:10;;;;;;;;;;;15.40;99.90;;;;;;5067457;28;19908;-76
2021/10/26 09:32:37;;;;;;;;;;;16.20;99.90;;;;;;5092272;28;19915;-77
2021/10/26 09:35:05;;;;;;;;;;;16.50;99.90;;;;;;5094205;28;19915;-77
2021/10/26 09:37:35;;;;;;;;;;;16.90;99.90;;;;;;5076795;28;19908;-76
2021/10/26 09:40:01;;;;;;;;;;;19.60;99.90;;;;;;5094155;28;19908;-77
2021/10/26 09:42:27;;;;;;;;;;;17.30;99.90;;;;;;5094350;28;19935;-77
2021/10/26 09:44:56;;;;;;;;;;;16.70;99.90;;;;;;5094463;28;20034;-77
2021/10/26 09:47:24;;;;;;;;;;;16.60;99.90;;;;;;5076064;28;19915;-77
2021/10/26 09:50:00;;;;;;;;;;;16.40;99.90;;;;;;5094231;28;19919;-76
2021/10/26 09:52:30;;;;;;;;;;;15.60;99.90;;;;;;5076145;28;19989;-76
2021/10/26 09:55:02;;;;;;;;;;;14.70;99.90;;;;;;5094506;28;20377;-76
2021/10/26 09:57:35;;;;;;;;;;;14.10;99.90;;;;;;5073229;28;20269;-76
2021/10/26 10:00:03;;;;;;;;;;;13.90;99.90;;;;;;5090876;28;19944;-77
2021/10/26 10:02:29;;;;;;;;;;;13.80;99.90;;;;;;5085850;28;19912;-78
2021/10/26 10:04:56;;;;;;;;;;;13.80;99.90;;;;;;5093646;28;19968;-78
2021/10/26 10:07:47;;;;;;;;;;;14.10;99.90;;;;;;5092462;28;19953;-76
2021/10/26 10:10:13;;;;;;;;;;;14.20;99.90;;;;;;5086389;28;19927;-76
2021/10/26 10:12:39;;;;;;;;;;;14.30;99.90;;;;;;5093212;28;19912;-76
2021/10/26 10:15:05;;;;;;;;;;;15.10;99.90;;;;;;5093500;28;19915;-77
2021/10/26 10:17:32;;;;;;;;;;;15.10;99.90;;;;;;5092194;28;19956;-77
2021/10/26 10:20:00;;;;;;;;;;;15.00;99.90;;;;;;5081851;28;20305;-76
2021/10/26 10:22:27;;;;;;;;;;;18.20;99.90;;;;;;5075367;28;19942;-77
2021/10/26 10:24:57;;;;;;;;;;;19.40;99.90;;;;;;5093392;28;19912;-77
2021/10/26 10:27:25;;;;;;;;;;;18.10;99.90;;;;;;5089078;28;20324;-77
2021/10/26 10:29:51;;;;;;;;;;;16.70;99.90;;;;;;5080115;28;19919;-77
2021/10/26 10:32:19;;;;;;;;;;;16.00;99.90;;;;;;5062897;28;19920;-76
2021/10/26 10:34:45;;;;;;;;;;;15.30;99.90;;;;;;5088202;28;20006;-77
2021/10/26 10:37:11;;;;;;;;;;;15.20;99.90;;;;;;5075321;28;19966;-77
2021/10/26 10:39:36;;;;;;;;;;;15.20;99.90;;;;;;5092883;28;19947;-77
2021/10/26 10:42:31;;;;;;;;;;;15.10;99.90;;;;;;5092678;28;19915;-77
2021/10/26 10:44:56;;;;;;;;;;;15.30;99.90;;;;;;5071323;28;19923;-77
2021/10/26 10:47:31;;;;;;;;;;;15.10;99.90;;;;;;5092609;28;19908;-77
2021/10/26 10:49:56;;;;;;;;;;;15.80;99.90;;;;;;5092247;28;19916;-78
2021/10/26 10:52:30;;;;;;;;;;;16.20;99.90;;;;;;5092516;28;20006;-77
2021/10/26 10:55:00;;;;;;;;;;;15.70;99.90;;;;;;5074667;28;19995;-78
2021/10/26 10:57:35;;;;;;;;;;;15.50;99.90;;;;;;5070056;28;20396;-76
2021/10/26 11:00:04;;;;;;;;;;;15.80;99.90;;;;;;5080535;28;19915;-75
2021/10/26 11:02:47;;;;;;;;;;;15.60;99.90;;;;;;5091590;28;20386;-76
2021/10/26 11:05:32;;;;;;;;;;;15.80;99.90;;;;;;5073787;28;20006;-77
2021/10/26 11:07:59;;;;;;;;;;;15.90;99.90;;;;;;5091801;28;19908;-77
2021/10/26 11:10:44;;;;;;;;;;;15.70;99.90;;;;;;5073499;28;19966;-78
2021/10/26 11:13:35;;;;;;;;;;;15.70;99.90;;;;;;5092617;28;19912;-76
2021/10/26 11:16:08;;;;;;;;;;;15.50;99.90;;;;;;5079698;28;19915;-76
2021/10/26 11:18:37;;;;;;;;;;;15.70;99.90;;;;;;5091808;28;19919;-76
2021/10/26 11:21:03;;;;;;;;;;;15.60;99.90;;;;;;5091432;28;19929;-76
2021/10/26 11:23:37;;;;;;;;;;;15.40;99.90;;;;;;5091250;28;19912;-77
2021/10/26 11:26:04;;;;;;;;;;;15.60;99.90;;;;;;5090904;28;20266;-75
2021/10/26 11:28:30;;;;;;;;;;;15.60;99.90;;;;;;5082284;28;19914;-75
2021/10/26 11:30:59;;;;;;;;;;;15.50;99.90;;;;;;5079364;28;19995;-75
2021/10/26 11:33:24;;;;;;;;;;;15.50;99.90;;;;;;5084895;28;19908;-76
2021/10/26 11:35:51;;;;;;;;;;;15.20;99.90;;;;;;5068160;28;19915;-75
2021/10/26 11:38:18;;;;;;;;;;;14.90;99.90;;;;;;5090967;28;19916;-76
2021/10/26 11:40:53;;;;;;;;;;;14.80;99.90;;;;;;5083767;28;19909;-74
2021/10/26 11:43:20;;;;;;;;;;;14.70;99.90;;;;;;5082136;28;19916;-74
2021/10/26 11:45:53;;;;;;;;;;;14.70;99.90;;;;;;5069609;28;19996;-76
2021/10/26 11:48:38;;;;;;;;;;;14.60;99.90;;;;;;5090370;28;20287;-75
2021/10/26 11:51:19;;;;;;;;;;;14.50;99.90;;;;;;5085873;28;19928;-75
2021/10/26 11:53:45;;;;;;;;;;;14.60;99.90;;;;;;5083406;28;19908;-76
2021/10/26 11:56:21;;;;;;;;;;;14.60;99.90;;;;;;5085027;28;20263;-75
2021/10/26 11:59:07;;;;;;;;;;;14.40;99.90;;;;;;5085182;28;20140;-75
2021/10/26 12:01:35;;;;;;;;;;;14.20;99.90;;;;;;5083371;28;19908;-75
2021/10/26 12:04:01;;;;;;;;;;;14.10;99.90;;;;;;5089500;28;19913;-76
2021/10/26 12:06:28;;;;;;;;;;;14.10;99.90;;;;;;5091735;28;19912;-77
2021/10/26 12:09:00;;;;;;;;;;;14.30;99.90;;;;;;5094285;28;19947;-76
2021/10/26 12:11:31;;;;;;;;;;;14.30;99.90;;;;;;5093504;28;20294;-76
2021/10/26 12:14:12;;;;;;;;;;;14.40;99.90;;;;;;5094065;28;19938;-76
2021/10/26 12:16:38;;;;;;;;;;;14.30;99.90;;;;;;5075841;28;19970;-76
2021/10/26 12:19:03;;;;;;;;;;;14.30;99.90;;;;;;5094795;28;20366;-76
2021/10/26 12:21:29;;;;;;;;;;;14.40;99.90;;;;;;5094586;28;19954;-76
2021/10/26 12:23:55;;;;;;;;;;;14.60;99.90;;;;;;5093823;28;19916;-76
2021/10/26 12:26:21;;;;;;;;;;;14.60;99.90;;;;;;5093105;28;19991;-76
2021/10/26 12:28:53;;;;;;;;;;;14.70;99.90;;;;;;5089308;28;19962;-76
2021/10/26 12:31:19;;;;;;;;;;;14.60;99.90;;;;;;5079580;28;19908;-77
2021/10/26 12:33:44;;;;;;;;;;;14.70;99.90;;;;;;5083561;28;19961;-77
2021/10/26 12:36:10;;;;;;;;;;;14.80;99.90;;;;;;5084177;28;19961;-76
2021/10/26 12:38:39;;;;;;;;;;;14.50;99.90;;;;;;5093495;28;19919;-76
2021/10/26 12:41:07;;;;;;;;;;;14.30;99.90;;;;;;5091846;28;19907;-76
2021/10/26 12:43:32;;;;;;;;;;;14.40;99.90;;;;;;5083758;28;20274;-76
2021/10/26 12:46:00;;;;;;;;;;;14.70;99.90;;;;;;5086374;28;19908;-77
2021/10/26 12:48:35;;;;;;;;;;;15.10;99.90;;;;;;5092601;28;19915;-75
2021/10/26 12:51:03;;;;;;;;;;;15.30;99.90;;;;;;5092951;28;19912;-76
2021/10/26 12:53:39;;;;;;;;;;;15.00;99.90;;;;;;5092432;28;19908;-76
2021/10/26 12:56:20;;;;;;;;;;;15.20;99.90;;;;;;5074234;28;19912;-76
2021/10/26 12:58:47;;;;;;;;;;;15.50;99.90;;;;;;5068168;28;20355;-76
2021/10/26 13:01:18;;;;;;;;;;;15.40;99.90;;;;;;5092794;28;20331;-77
2021/10/26 13:03:53;;;;;;;;;;;15.20;99.90;;;;;;5093976;28;20258;-76
2021/10/26 13:06:21;;;;;;;;;;;15.00;99.90;;;;;;5092129;28;19990;-77
2021/10/26 13:08:47;;;;;;;;;;;15.00;99.90;;;;;;5091603;28;19999;-77
2021/10/26 13:11:21;;;;;;;;;;;14.90;99.90;;;;;;5085458;28;20019;-76
2021/10/26 13:14:15;;;;;;;;;;;14.60;99.90;;;;;;5088407;28;19908;-76
2021/10/26 13:16:43;;;;;;;;;;;14.50;99.90;;;;;;5064137;28;19953;-77
2021/10/26 13:19:09;;;;;;;;;;;14.50;99.90;;;;;;5074103;28;19908;-77
2021/10/26 13:21:35;;;;;;;;;;;14.30;99.90;;;;;;5091226;28;20294;-76
2021/10/26 13:24:00;;;;;;;;;;;14.20;99.90;;;;;;5082183;28;19912;-77
2021/10/26 13:26:26;;;;;;;;;;;14.10;99.90;;;;;;5089035;28;19916;-77
2021/10/26 13:28:52;;;;;;;;;;;14.10;99.90;;;;;;5080754;28;20425;-77
2021/10/26 13:31:20;;;;;;;;;;;14.30;99.90;;;;;;5088927;28;19908;-76
2021/10/26 13:33:46;;;;;;;;;;;14.20;99.90;;;;;;5085650;28;19908;-76
2021/10/26 13:36:12;;;;;;;;;;;14.30;99.90;;;;;;5069614;28;19909;-76
2021/10/26 13:38:39;;;;;;;;;;;14.30;99.90;;;;;;5086836;28;19916;-77
2021/10/26 13:41:05;;;;;;;;;;;14.40;99.90;;;;;;5091514;28;20283;-76
2021/10/26 13:43:31;;;;;;;;;;;14.20;99.90;;;;;;5073594;28;19919;-76
2021/10/26 13:46:00;;;;;;;;;;;14.20;99.90;;;;;;5081609;28;20294;-77
2021/10/26 13:48:25;;;;;;;;;;;14.10;99.90;;;;;;5091424;28;20270;-76
2021/10/26 13:50:51;;;;;;;;;;;14.20;99.90;;;;;;5085236;28;19908;-77
2021/10/26 13:53:17;;;;;;;;;;;14.20;99.90;;;;;;5091900;28;19916;-76
2021/10/26 13:55:43;;;;;;;;;;;14.20;99.90;;;;;;5088694;28;19943;-76
2021/10/26 13:58:09;;;;;;;;;;;14.40;99.90;;;;;;5083461;28;19915;-74
2021/10/26 14:00:38;;;;;;;;;;;14.40;99.90;;;;;;5080486;28;20326;-74
2021/10/26 14:03:04;;;;;;;;;;;14.30;99.90;;;;;;5084905;28;19955;-74
2021/10/26 14:05:29;;;;;;;;;;;14.50;99.90;;;;;;5079448;28;19983;-74
2021/10/26 14:07:56;;;;;;;;;;;14.50;99.90;;;;;;5060204;28;20388;-74
2021/10/26 14:10:22;;;;;;;;;;;14.30;99.90;;;;;;5087979;28;19916;-75
2021/10/26 14:12:48;;;;;;;;;;;14.40;99.90;;;;;;5089798;28;19908;-75
2021/10/26 14:15:14;;;;;;;;;;;14.30;99.90;;;;;;5091784;28;19915;-74
2021/10/26 14:17:40;;;;;;;;;;;14.20;99.90;;;;;;5074013;28;19954;-75
2021/10/26 14:20:07;;;;;;;;;;;14.20;99.90;;;;;;5091332;28;19943;-75
2021/10/26 14:22:33;;;;;;;;;;;14.20;99.90;;;;;;5090719;28;19915;-75
2021/10/26 14:24:59;;;;;;;;;;;14.30;99.90;;;;;;5073778;28;19912;-75
2021/10/26 14:27:24;;;;;;;;;;;14.20;99.90;;;;;;5071922;28;19936;-74
2021/10/26 14:29:50;;;;;;;;;;;14.00;99.90;;;;;;5086752;28;19969;-74
2021/10/26 14:32:19;;;;;;;;;;;13.90;99.90;;;;;;5089566;28;20119;-74
2021/10/26 14:34:45;;;;;;;;;;;13.70;99.90;;;;;;5085807;28;19909;-74
2021/10/26 14:53:06;;;;;;;;;;;13.30;99.90;;;;;;5091569;28;20108;-75